Bay Port, Michigan
Current Conditions -  °F | °C
As of 3:35 AM on Sunday 23 Nov 2014 (Local Time) from KBAX Reporting Station
Haze Haze  
Wind Chill: 41°   Ceiling: 1900
Heat Index: 45°   Visibility: 5mi
Dew Point: 45°   Wind: 6mph
Humidity: 100%   Direction: 200°SSW
Pressure: 29.89"   Gusts: NA
Location:  43.85°N, 83.37°W
Report Text: KBAX 230835Z AUTO 20005KT 5SM BR OVC019 07/07 A2989 RMK AO2 T00700070
Loading
Personal Weather Stations






























Interactive Weather Map New forecast layout! Learn more

10-Day Weather Forecast

Advertisements
Track Severe Weather on mobile